Myra Eckstein — WDF9473 — position and weather

sailwx.info

Track history (hours):
 
Tides and Currents Weather Stations Pressure Air Temp Water Temp Dewpoint Dewpoint Depression Visibility Wind Speed Wind Dir Waves Ship Positions

Myra Eckstein

Owner: Marquette Transportation Co. LLC, Paducah, KY. More information available from US FCC via Universal Licensing System and Coast Guard Vessel Documentation Center.

Last reported at 2015-Jun-27 06:22 UTC. Time now 2015-Jul-02 09:51 UTC.
Position N 30°13' W 091°06'.

Length 47 m; draft 3.5 m.

Type: Towing. MMSI: 367505510.

Date/timePositionNaut miles runAvg speedWind from/ knotsBaromVisibWave heightAir tempDewpointWater temp
2015-Jun-27 06:22N 30°13' W 091°06'3 4.2
2015-Jun-27 05:33N 30°13' W 091°09'4 3.4
2015-Jun-27 04:23N 30°17' W 091°10'2 2.8
2015-Jun-27 03:32N 30°19' W 091°11'3 3.1
2015-Jun-27 02:31N 30°21' W 091°14'3 3.5
2015-Jun-27 01:33N 30°24' W 091°12'3 3.2
2015-Jun-27 00:33N 30°27' W 091°12'4 4.2
2015-Jun-26 23:33N 30°31' W 091°14'3 2.7
2015-Jun-26 22:33N 30°33' W 091°15'7 6.5
2015-Jun-26 21:33N 30°39' W 091°19'  
Track history (hours):
 
Tides and Currents Weather Stations Pressure Air Temp Water Temp Dewpoint Dewpoint Depression Visibility Wind Speed Wind Dir Waves Ship Positions

Myra Eckstein

Owner: Marquette Transportation Co. LLC, Paducah, KY. More information available from US FCC via Universal Licensing System and Coast Guard Vessel Documentation Center.

Last reported at 2015-Jun-27 06:22 UTC. Time now 2015-Jul-02 09:51 UTC.
Position N 30°13' W 091°06'.

Length 47 m; draft 3.5 m.

Type: Towing. MMSI: 367505510.

Date/timePositionNaut miles runAvg speedWind from/ knotsBaromVisibWave heightAir tempDewpointWater temp
2015-Jun-27 06:22N 30°13' W 091°06'3 4.2
2015-Jun-27 05:33N 30°13' W 091°09'4 3.4
2015-Jun-27 04:23N 30°17' W 091°10'2 2.8
2015-Jun-27 03:32N 30°19' W 091°11'3 3.1
2015-Jun-27 02:31N 30°21' W 091°14'3 3.5
2015-Jun-27 01:33N 30°24' W 091°12'3 3.2
2015-Jun-27 00:33N 30°27' W 091°12'4 4.2
2015-Jun-26 23:33N 30°31' W 091°14'3 2.7
2015-Jun-26 22:33N 30°33' W 091°15'7 6.5
2015-Jun-26 21:33N 30°39' W 091°19'  

Dump ship's entire track history